Aripeka, Florida
Current Conditions -  °F | °C
As of 10:53 PM on Sunday 25 Jan 2015 (Local Time) from KBKV Reporting Station
Clear Clear  
Wind Chill: 50°   Ceiling: Unl
Heat Index: 50°   Visibility: 9mi
Dew Point: 48°   Wind: 5mph
Humidity: 93%   Direction: 170°S
Pressure: 29.96"   Gusts: NA
Location:  28.43°N, 82.66°W
Report Text: KBKV 260353Z AUTO 17004KT 9SM CLR 10/09 A2996 RMK AO2 SLP145 T01000089 $
Loading
Personal Weather Stations






























Interactive Weather Map New forecast layout! Learn more

10-Day Weather Forecast

Advertisements
Track Severe Weather on mobile